Celine — HBEF — position and weather

sailwx.info

Track history (hours):
 
Tides and Currents Weather Stations Pressure Air Temp Water Temp Dewpoint Dewpoint Depression Visibility Wind Speed Wind Dir Waves Ship Positions

Celine

Last reported at 2014-Aug-19 21:25 UTC. Time now 2014-Aug-20 16:40 UTC.
Position N 63°27' W 021°51'.

Length 129 m; draft 5 m.

Type: Cargo ship. MMSI: 269057000.

Date/timePositionNaut miles runAvg speedWind from/ knotsBaromVisibWave heightAir tempDewpointWater temp
2014-Aug-19 21:25N 63°27' W 021°51'1214.3
2014-Aug-19 20:33N 63°33' W 022°16'3912.4
2014-Aug-19 17:26N 64°07' W 022°58'1112.8
2014-Aug-19 16:33N 64°09' W 022°33'1313.4
2014-Aug-19 15:33N 64°11' W 022°03'8 8.2
2014-Aug-19 14:33N 64°18' W 021°53'4 4.3
2014-Aug-19 13:33N 64°21' W 021°46'0 0.0
2014-Aug-19 12:33N 64°21' W 021°46'0 0.0
2014-Aug-19 11:33N 64°21' W 021°46'0 0.0
2014-Aug-19 10:29N 64°21' W 021°46'0 0.0
2014-Aug-19 09:33N 64°21' W 021°46'0 0.0
2014-Aug-19 08:29N 64°21' W 021°46'0 0.0
2014-Aug-19 07:32N 64°21' W 021°46'0 0.0
2014-Aug-19 06:32N 64°21' W 021°46'0 0.0
2014-Aug-19 05:32N 64°21' W 021°46'0 0.0
2014-Aug-19 04:30N 64°21' W 021°46'0 0.0
2014-Aug-19 03:32N 64°21' W 021°46'0 0.0
2014-Aug-19 02:32N 64°21' W 021°46'0 0.0
2014-Aug-19 01:33N 64°21' W 021°46'0 0.0
2014-Aug-19 00:32N 64°21' W 021°46'0 0.0
2014-Aug-18 23:32N 64°21' W 021°46'0 0.0
2014-Aug-18 22:29N 64°21' W 021°46'0 0.0
2014-Aug-18 21:33N 64°21' W 021°46'0 0.0
2014-Aug-18 20:29N 64°21' W 021°46'0 0.0
2014-Aug-18 19:32N 64°21' W 021°46'0 0.0
2014-Aug-18 18:32N 64°21' W 021°46'0 0.0
2014-Aug-18 17:29N 64°21' W 021°46'0 0.0
2014-Aug-18 16:32N 64°21' W 021°46'0 0.0
2014-Aug-18 15:32N 64°21' W 021°46'0 0.0
2014-Aug-18 14:32N 64°21' W 021°46'0 0.0
2014-Aug-18 13:32N 64°21' W 021°46'0 0.0
2014-Aug-18 12:32N 64°21' W 021°46'0 0.0
2014-Aug-18 11:32N 64°21' W 021°46'0 0.0
2014-Aug-18 10:32N 64°21' W 021°46'0 0.0
2014-Aug-18 09:29N 64°21' W 021°46'0 0.0
2014-Aug-18 08:32N 64°21' W 021°46'0 0.0
2014-Aug-18 07:32N 64°21' W 021°46'0 0.0
2014-Aug-18 06:32N 64°21' W 021°46'0 0.0
2014-Aug-18 05:32N 64°21' W 021°46'0 0.0
2014-Aug-18 04:32N 64°21' W 021°46'0 0.0
2014-Aug-18 03:32N 64°21' W 021°46'0 0.0
2014-Aug-18 02:32N 64°21' W 021°46'0 0.0
2014-Aug-18 01:32N 64°21' W 021°46'0 0.0
2014-Aug-18 00:29N 64°21' W 021°46'0 0.0
2014-Aug-17 18:32N 64°21' W 021°46'0 0.0
2014-Aug-17 17:33N 64°21' W 021°46'0 0.0
2014-Aug-17 16:33N 64°21' W 021°46'0 0.0
2014-Aug-17 15:33N 64°21' W 021°46'0 0.0
2014-Aug-17 14:33N 64°21' W 021°46'0 0.2
2014-Aug-17 13:33N 64°21' W 021°47'10 9.9
2014-Aug-17 12:33N 64°13' W 021°60'9 8.7
2014-Aug-17 11:33N 64°09' W 022°17'1212.2
2014-Aug-17 10:33N 64°07' W 022°45'  
Track history (hours):
 
Tides and Currents Weather Stations Pressure Air Temp Water Temp Dewpoint Dewpoint Depression Visibility Wind Speed Wind Dir Waves Ship Positions

Celine

Last reported at 2014-Aug-19 21:25 UTC. Time now 2014-Aug-20 16:40 UTC.
Position N 63°27' W 021°51'.

Length 129 m; draft 5 m.

Type: Cargo ship. MMSI: 269057000.

Date/timePositionNaut miles runAvg speedWind from/ knotsBaromVisibWave heightAir tempDewpointWater temp
2014-Aug-19 21:25N 63°27' W 021°51'1214.3
2014-Aug-19 20:33N 63°33' W 022°16'3912.4
2014-Aug-19 17:26N 64°07' W 022°58'1112.8
2014-Aug-19 16:33N 64°09' W 022°33'1313.4
2014-Aug-19 15:33N 64°11' W 022°03'8 8.2
2014-Aug-19 14:33N 64°18' W 021°53'4 4.3
2014-Aug-19 13:33N 64°21' W 021°46'0 0.0
2014-Aug-19 12:33N 64°21' W 021°46'0 0.0
2014-Aug-19 11:33N 64°21' W 021°46'0 0.0
2014-Aug-19 10:29N 64°21' W 021°46'0 0.0
2014-Aug-19 09:33N 64°21' W 021°46'0 0.0
2014-Aug-19 08:29N 64°21' W 021°46'0 0.0
2014-Aug-19 07:32N 64°21' W 021°46'0 0.0
2014-Aug-19 06:32N 64°21' W 021°46'0 0.0
2014-Aug-19 05:32N 64°21' W 021°46'0 0.0
2014-Aug-19 04:30N 64°21' W 021°46'0 0.0
2014-Aug-19 03:32N 64°21' W 021°46'0 0.0
2014-Aug-19 02:32N 64°21' W 021°46'0 0.0
2014-Aug-19 01:33N 64°21' W 021°46'0 0.0
2014-Aug-19 00:32N 64°21' W 021°46'0 0.0
2014-Aug-18 23:32N 64°21' W 021°46'0 0.0
2014-Aug-18 22:29N 64°21' W 021°46'0 0.0
2014-Aug-18 21:33N 64°21' W 021°46'0 0.0
2014-Aug-18 20:29N 64°21' W 021°46'0 0.0
2014-Aug-18 19:32N 64°21' W 021°46'0 0.0
2014-Aug-18 18:32N 64°21' W 021°46'0 0.0
2014-Aug-18 17:29N 64°21' W 021°46'0 0.0
2014-Aug-18 16:32N 64°21' W 021°46'0 0.0
2014-Aug-18 15:32N 64°21' W 021°46'0 0.0
2014-Aug-18 14:32N 64°21' W 021°46'0 0.0
2014-Aug-18 13:32N 64°21' W 021°46'0 0.0
2014-Aug-18 12:32N 64°21' W 021°46'0 0.0
2014-Aug-18 11:32N 64°21' W 021°46'0 0.0
2014-Aug-18 10:32N 64°21' W 021°46'0 0.0
2014-Aug-18 09:29N 64°21' W 021°46'0 0.0
2014-Aug-18 08:32N 64°21' W 021°46'0 0.0
2014-Aug-18 07:32N 64°21' W 021°46'0 0.0
2014-Aug-18 06:32N 64°21' W 021°46'0 0.0
2014-Aug-18 05:32N 64°21' W 021°46'0 0.0
2014-Aug-18 04:32N 64°21' W 021°46'0 0.0
2014-Aug-18 03:32N 64°21' W 021°46'0 0.0
2014-Aug-18 02:32N 64°21' W 021°46'0 0.0
2014-Aug-18 01:32N 64°21' W 021°46'0 0.0
2014-Aug-18 00:29N 64°21' W 021°46'0 0.0
2014-Aug-17 18:32N 64°21' W 021°46'0 0.0
2014-Aug-17 17:33N 64°21' W 021°46'0 0.0
2014-Aug-17 16:33N 64°21' W 021°46'0 0.0
2014-Aug-17 15:33N 64°21' W 021°46'0 0.0
2014-Aug-17 14:33N 64°21' W 021°46'0 0.2
2014-Aug-17 13:33N 64°21' W 021°47'10 9.9
2014-Aug-17 12:33N 64°13' W 021°60'9 8.7
2014-Aug-17 11:33N 64°09' W 022°17'1212.2
2014-Aug-17 10:33N 64°07' W 022°45'  

Dump ship's entire track history